SHQ weather

Southport Airport
Queensland, Australia

Public forecast

Using degrees Celsius for public forecast. Weather courtesy of forecast.io.

Closest aviation weather report (METAR) to Southport Airport

Closest report is Gold Coast Airport, 16.2 nm (29.9 km) SSE. Retrieved 2020/03/31 23:00 UTC (30 minutes ago):

YBCG 312300Z AUTO 19011KT 9999 // NCD 26/19 Q1018

Closest aviation forecast (TAF) to Southport Airport

Closest forecast is Gold Coast Airport, 16.2 nm (29.9 km) SSE. Retrieved 2020/03/31 18:00 UTC (5 hours ago):

TAF YBCG 311722Z 3118/0118 22008KT 9999 -SHRA SCT020 FM010000 15012KT 9999 NSW FEW030 FM011200 19007KT 9999 -SHRA SCT020